createdAt,value
2019-05-13T00:03:19.362Z,54.60
2019-05-13T00:08:21.637Z,54.50
2019-05-13T00:13:20.139Z,54.20
2019-05-13T00:18:20.654Z,53.90
2019-05-13T00:23:20.438Z,54.10
2019-05-13T00:28:19.982Z,54.20
2019-05-13T00:33:19.595Z,55.30
2019-05-13T00:38:19.170Z,55.80
2019-05-13T00:43:18.720Z,56.70
2019-05-13T00:48:18.261Z,57.20
2019-05-13T00:53:17.789Z,57.40
2019-05-13T00:58:17.340Z,57.60
2019-05-13T01:03:16.887Z,57.80
2019-05-13T01:08:17.022Z,58.10
2019-05-13T01:13:16.562Z,59.10
2019-05-13T01:18:16.122Z,59.70
2019-05-13T01:23:15.645Z,60.20
2019-05-13T01:28:17.544Z,61.00
2019-05-13T01:33:17.076Z,61.40
2019-05-13T01:38:16.622Z,61.70
2019-05-13T01:43:16.208Z,62.00
2019-05-13T01:48:15.735Z,62.80
2019-05-13T01:53:15.278Z,63.80
2019-05-13T01:58:14.823Z,65.00
2019-05-13T02:03:14.763Z,65.20
2019-05-13T02:08:15.382Z,65.90
2019-05-13T02:13:14.939Z,67.40
2019-05-13T02:18:14.478Z,68.60
2019-05-13T02:23:14.515Z,70.10
2019-05-13T02:28:14.242Z,70.60
2019-05-13T02:33:13.803Z,71.30
2019-05-13T02:38:22.720Z,71.80
2019-05-13T02:43:14.662Z,72.60
2019-05-13T02:48:14.211Z,74.30
2019-05-13T02:53:13.876Z,75.90
2019-05-13T02:58:13.463Z,77.20
2019-05-13T03:03:13.115Z,79.90
2019-05-13T03:08:13.059Z,82.30
2019-05-13T03:13:12.946Z,84.20
2019-05-13T03:18:13.457Z,87.90
2019-05-13T03:23:13.747Z,87.20
2019-05-13T03:28:13.680Z,88.70
2019-05-13T03:33:18.880Z,90.70
2019-05-13T03:38:14.575Z,91.90
2019-05-13T03:43:14.567Z,93.50
2019-05-13T03:48:14.274Z,94.20
2019-05-13T03:53:13.872Z,95.60
2019-05-13T03:58:13.562Z,96.50
2019-05-13T04:03:13.811Z,96.80
2019-05-13T04:08:13.739Z,98.00
2019-05-13T04:13:13.278Z,98.80
2019-05-13T04:18:12.958Z,99.80
2019-05-13T04:23:12.958Z,99.90
2019-05-13T04:28:13.547Z,99.90
2019-05-13T04:33:14.111Z,99.90
2019-05-13T04:38:14.839Z,99.90
2019-05-13T04:43:14.367Z,99.90
2019-05-13T04:48:13.918Z,99.90
2019-05-13T04:53:14.480Z,99.90
2019-05-13T04:58:14.025Z,99.90
2019-05-13T05:03:32.584Z,99.90
2019-05-13T05:09:06.973Z,99.90
2019-05-13T05:14:27.133Z,99.90
2019-05-13T05:19:47.645Z,99.90
2019-05-13T05:24:58.120Z,99.90
2019-05-13T05:30:13.626Z,99.90
2019-05-13T05:35:47.958Z,99.90
2019-05-13T05:40:48.554Z,99.90
2019-05-13T05:45:48.172Z,99.90
2019-05-13T05:50:48.234Z,99.90
2019-05-13T05:55:51.768Z,99.90
2019-05-13T06:00:55.234Z,99.90
2019-05-13T06:05:55.214Z,99.90
2019-05-13T06:10:54.781Z,99.90
2019-05-13T06:15:54.467Z,99.90
2019-05-13T06:20:54.084Z,99.90
2019-05-13T06:25:53.704Z,99.90
2019-05-13T06:30:53.358Z,99.90
2019-05-13T06:35:56.516Z,99.90
2019-05-13T06:41:03.327Z,99.90
2019-05-13T06:45:58.909Z,99.90
2019-05-13T06:50:58.452Z,99.90
2019-05-13T06:55:58.169Z,99.90
2019-05-13T07:00:58.653Z,99.90
2019-05-13T07:05:58.472Z,99.90
2019-05-13T07:10:58.018Z,99.90
2019-05-13T07:15:57.647Z,99.90
2019-05-13T07:20:57.202Z,99.90
2019-05-13T07:25:56.818Z,99.90
2019-05-13T07:30:56.374Z,99.90
2019-05-13T07:35:58.496Z,99.90
2019-05-13T07:41:02.531Z,99.90
2019-05-13T07:46:02.358Z,99.90
2019-05-13T07:51:04.620Z,99.90
2019-05-13T07:56:03.318Z,99.90
2019-05-13T08:01:03.970Z,99.90
2019-05-13T08:06:03.518Z,98.70
2019-05-13T08:11:03.078Z,96.50
2019-05-13T08:16:02.739Z,96.50
2019-05-13T08:21:02.940Z,92.40
2019-05-13T08:26:02.950Z,93.80
2019-05-13T08:31:02.523Z,95.60
2019-05-13T08:36:02.135Z,93.00
2019-05-13T08:41:02.127Z,92.90
2019-05-13T08:46:02.464Z,90.90
2019-05-13T08:51:03.462Z,86.50
2019-05-13T08:56:03.130Z,88.30
2019-05-13T09:01:02.706Z,82.00
2019-05-13T09:06:02.960Z,75.80
2019-05-13T09:11:02.851Z,69.70
2019-05-13T09:16:02.761Z,69.50
2019-05-13T09:21:02.864Z,62.70
2019-05-13T09:26:02.880Z,66.70
2019-05-13T09:31:02.607Z,67.50
2019-05-13T09:36:02.451Z,65.40
2019-05-13T09:41:02.348Z,63.90
2019-05-13T09:46:02.066Z,61.10
2019-05-13T09:51:02.806Z,57.80
2019-05-13T09:56:03.447Z,57.10
2019-05-13T10:01:03.103Z,60.60
2019-05-13T10:06:02.849Z,56.40
2019-05-13T10:11:03.532Z,52.80
2019-05-13T10:16:03.074Z,54.50
2019-05-13T10:21:04.014Z,54.50
2019-05-13T10:26:06.602Z,55.40
2019-05-13T10:31:06.292Z,54.70
2019-05-13T10:36:06.029Z,53.60
2019-05-13T10:41:05.749Z,57.20
2019-05-13T10:46:05.460Z,58.50
2019-05-13T10:51:05.364Z,58.20
2019-05-13T10:56:05.035Z,56.40
2019-05-13T11:01:05.042Z,51.60
2019-05-13T11:06:04.742Z,50.60
2019-05-13T11:11:04.355Z,49.10
2019-05-13T11:16:03.951Z,49.90
2019-05-13T11:21:03.549Z,47.80
2019-05-13T11:26:03.491Z,47.30
2019-05-13T11:31:03.598Z,46.80
2019-05-13T11:36:03.721Z,47.50
2019-05-13T11:41:04.527Z,46.10
2019-05-13T11:46:04.163Z,48.50
2019-05-13T11:51:04.299Z,47.60
2019-05-13T11:56:04.086Z,48.80
2019-05-13T12:01:04.205Z,48.60
2019-05-13T12:06:03.882Z,45.40
2019-05-13T12:11:04.589Z,44.10
2019-05-13T12:16:04.858Z,45.80
2019-05-13T12:21:04.509Z,43.50
2019-05-13T12:26:05.373Z,42.20
2019-05-13T12:31:06.095Z,41.90
2019-05-13T12:36:05.991Z,40.10
2019-05-13T12:41:05.767Z,41.20
2019-05-13T12:46:05.473Z,39.10
2019-05-13T12:51:05.063Z,39.40
2019-05-13T12:56:04.842Z,39.50
2019-05-13T13:01:04.846Z,40.40
2019-05-13T13:06:25.104Z,42.00
2019-05-13T13:11:05.907Z,42.30
2019-05-13T13:16:05.556Z,41.80
2019-05-13T13:21:07.453Z,41.50
2019-05-13T13:26:13.916Z,41.80
2019-05-13T13:31:07.720Z,43.90
2019-05-13T13:36:07.267Z,41.30
2019-05-13T13:41:07.201Z,41.80
2019-05-13T13:46:16.475Z,41.60
2019-05-13T13:51:08.142Z,42.50
2019-05-13T13:56:07.691Z,44.40
2019-05-13T14:01:17.604Z,43.50
2019-05-13T14:06:08.587Z,41.40
2019-05-13T14:11:08.138Z,43.10
2019-05-13T14:16:22.517Z,38.30
2019-05-13T14:21:08.956Z,40.60
2019-05-13T14:26:09.237Z,38.90
2019-05-13T14:31:08.794Z,38.80
2019-05-13T14:36:08.354Z,39.20
2019-05-13T14:41:09.354Z,40.20
2019-05-13T14:46:09.434Z,41.60
2019-05-13T14:51:09.012Z,41.50
2019-05-13T14:56:08.585Z,41.10
2019-05-13T15:01:15.737Z,38.90
2019-05-13T15:06:11.811Z,39.20
2019-05-13T15:11:12.557Z,40.20
2019-05-13T15:16:12.047Z,41.00
2019-05-13T15:21:12.293Z,41.10
2019-05-13T15:26:11.989Z,42.00
2019-05-13T15:31:11.655Z,41.90
2019-05-13T15:36:11.961Z,42.00
2019-05-13T15:41:15.306Z,42.40
2019-05-13T15:46:12.960Z,40.40
2019-05-13T15:51:12.530Z,39.70
2019-05-13T15:56:12.558Z,38.80
2019-05-13T16:01:12.669Z,39.30
2019-05-13T16:06:12.278Z,39.70
2019-05-13T16:11:12.627Z,40.30
2019-05-13T16:16:12.598Z,39.80
2019-05-13T16:21:12.276Z,39.80
2019-05-13T16:26:12.359Z,40.10
2019-05-13T16:31:13.298Z,40.80
2019-05-13T16:36:15.043Z,39.00
2019-05-13T16:41:14.739Z,40.10
2019-05-13T16:46:14.423Z,40.20
2019-05-13T16:51:13.988Z,40.80
2019-05-13T16:56:25.822Z,40.60
2019-05-13T17:01:14.834Z,42.00
2019-05-13T17:06:16.413Z,42.20
2019-05-13T17:11:16.130Z,42.70
2019-05-13T17:16:17.396Z,43.50
2019-05-13T17:21:22.579Z,42.80
2019-05-13T17:26:22.206Z,42.80
2019-05-13T17:31:21.991Z,42.90
2019-05-13T17:36:21.791Z,43.20
2019-05-13T17:41:22.532Z,43.80
2019-05-13T17:46:22.061Z,43.90
2019-05-13T17:51:22.521Z,44.30
2019-05-13T17:56:22.391Z,43.90
2019-05-13T18:01:22.178Z,44.80
2019-05-13T18:06:21.819Z,44.00
2019-05-13T18:11:23.187Z,44.40
2019-05-13T18:16:22.952Z,44.50
2019-05-13T18:21:22.558Z,44.80
2019-05-13T18:26:22.471Z,45.00
2019-05-13T18:31:24.614Z,45.90
2019-05-13T18:36:23.686Z,45.10
2019-05-13T18:41:23.514Z,45.80
2019-05-13T18:46:24.686Z,45.90
2019-05-13T18:51:25.210Z,46.20
2019-05-13T18:56:25.415Z,46.70
2019-05-13T19:01:29.034Z,46.80
2019-05-13T19:06:31.626Z,47.60
2019-05-13T19:11:32.447Z,47.60
2019-05-13T19:16:32.394Z,48.30
2019-05-13T19:21:32.376Z,48.80
2019-05-13T19:26:33.035Z,49.30
2019-05-13T19:31:32.915Z,49.10
2019-05-13T19:36:32.672Z,49.50
2019-05-13T19:41:33.239Z,49.30
2019-05-13T19:46:33.386Z,50.20
2019-05-13T19:51:33.535Z,50.10
2019-05-13T19:56:33.102Z,50.40
2019-05-13T20:01:32.984Z,50.20
2019-05-13T20:06:32.597Z,50.70
2019-05-13T20:11:32.171Z,50.70
2019-05-13T20:16:32.161Z,51.50
2019-05-13T20:21:33.068Z,51.20
2019-05-13T20:26:35.756Z,50.70
2019-05-13T20:31:35.696Z,51.20
2019-05-13T20:36:35.300Z,51.40
2019-05-13T20:41:34.939Z,51.30
2019-05-13T20:46:35.800Z,51.40
2019-05-13T20:51:35.757Z,52.10
2019-05-13T20:56:36.358Z,51.70
2019-05-13T21:01:35.935Z,52.50
2019-05-13T21:06:35.482Z,53.10
2019-05-13T21:11:35.841Z,53.70
2019-05-13T21:16:36.064Z,54.00
2019-05-13T21:21:37.481Z,54.60
2019-05-13T21:26:41.831Z,54.40
2019-05-13T21:31:44.254Z,54.90
2019-05-13T21:36:46.666Z,55.50
2019-05-13T21:41:51.848Z,55.90
2019-05-13T21:46:54.155Z,56.10
2019-05-13T21:51:54.626Z,56.40
2019-05-13T21:56:55.239Z,57.40
2019-05-13T22:01:57.295Z,57.30
2019-05-13T22:07:01.619Z,58.40
2019-05-13T22:12:03.911Z,58.50
2019-05-13T22:17:05.832Z,59.20
2019-05-13T22:22:07.687Z,59.60
2019-05-13T22:27:12.509Z,59.60
2019-05-13T22:32:12.345Z,60.30
2019-05-13T22:37:12.058Z,60.10
2019-05-13T22:42:12.422Z,60.10
2019-05-13T22:47:13.423Z,60.20
2019-05-13T22:52:13.131Z,60.50
2019-05-13T22:57:12.706Z,60.90
2019-05-13T23:02:12.331Z,60.40
2019-05-13T23:07:11.978Z,60.80
2019-05-13T23:12:12.242Z,60.60
2019-05-13T23:17:12.607Z,61.20
2019-05-13T23:22:13.807Z,61.70
2019-05-13T23:27:13.370Z,61.50
2019-05-13T23:32:12.910Z,62.00
2019-05-13T23:37:12.470Z,63.00
2019-05-13T23:42:12.422Z,62.90
2019-05-13T23:47:13.147Z,64.00
2019-05-13T23:52:12.769Z,65.00
2019-05-13T23:57:12.326Z,65.60
